Latest Weather Observations for Walpole North

IDW60801

Issued at 8:33 am WST Tuesday 17 January 2017 (issued every 30 minutes, with the page automatically refreshed every 10 minutes)

About weather observations | Map of weather stations | Latest weather observations for WA | Other Formats
Station Details ID: 009998 Name: NORTH WALPOLE Lat: -34.95 Lon: 116.72 Height: 73.0 m
Data from the previous 72 hours. | See also: Recent months at Walpole North
Date/Time
WST
Temp
°C
App
Temp
°C
Dew
Point
°C
Rel
Hum
%
Delta-T
°C
Wind Press
QNH
hPa
Press
MSL
hPa
Rain since
9am
mm
Dir  Spd
km/h
Gust
km/h
Spd
kts
Gust
kts
17/08:30am 17.1 13.7 7.7 54 4.7 SE 15 20 8 11 1018.2 1018.0 0.0
17/08:00am 16.3 13.6 7.5 56 4.4 SSE 11 20 6 11 1018.1 1017.9 0.0
17/07:30am 16.0 13.3 9.0 63 3.6 SE 13 20 7 11 1018.0 1017.8 0.0
17/07:00am 15.3 13.3 10.3 72 2.6 SE 11 20 6 11 1017.7 1017.5 0.0
17/06:30am 13.5 13.7 10.7 83 1.5 CALM 0 0 0 0 1017.5 1017.3 0.0
17/06:00am 13.3 13.1 10.3 82 1.6 SSW 2 7 1 4 1017.3 1017.1 0.0
17/05:30am 12.9 12.8 9.5 80 1.7 CALM 0 0 0 0 1017.0 1016.8 0.0
17/05:00am 13.3 13.2 9.4 77 2.0 CALM 0 0 0 0 1016.7 1016.5 0.0
17/04:30am 13.4 13.3 9.3 76 2.1 CALM 0 0 0 0 1016.4 1016.2 0.0
17/04:00am 12.8 12.6 9.1 78 1.9 CALM 0 6 0 3 1015.9 1015.7 0.0
17/03:30am 13.0 11.9 8.3 73 2.3 SSW 4 9 2 5 1015.7 1015.5 0.0
17/03:00am 13.5 11.9 8.6 72 2.5 SSW 7 13 4 7 1015.5 1015.3 0.0
17/02:30am 14.0 12.6 9.0 72 2.5 S 6 13 3 7 1015.4 1015.2 0.0
17/02:00am 13.5 11.5 8.8 73 2.4 SSW 9 13 5 7 1015.3 1015.1 0.0
17/01:30am 13.1 12.3 9.7 80 1.7 S 4 9 2 5 1015.2 1015.0 0.0
17/01:00am 12.4 12.2 9.2 81 1.6 CALM 0 6 0 3 1015.1 1014.9 0.0
17/12:30am 12.1 11.8 8.8 80 1.7 CALM 0 0 0 0 1015.3 1015.1 0.0
17/12:00am 12.7 12.5 9.0 78 1.9 CALM 0 0 0 0 1015.5 1015.3 0.0
 
Date/Time
WST
Temp
°C
App
Temp
°C
Dew
Point
°C
Rel
Hum
%
Delta-T
°C
Wind Press
QNH
hPa
Press
MSL
hPa
Rain since
9am
mm
Dir  Spd
km/h
Gust
km/h
Spd
kts
Gust
kts
16/11:30pm 12.8 11.8 8.7 76 2.1 SSE 4 7 2 4 1015.5 1015.3 0.0
16/11:00pm 12.9 12.6 8.6 75 2.2 CALM 0 0 0 0 1015.5 1015.3 0.0
16/10:30pm 13.4 13.1 8.7 73 2.4 CALM 0 7 0 4 1015.5 1015.3 0.0
16/10:00pm 13.6 12.2 8.7 72 2.5 SSE 6 9 3 5 1015.5 1015.3 0.0
16/09:30pm 13.6 12.0 8.7 72 2.5 SE 7 11 4 6 1015.4 1015.2 0.0
16/09:00pm 13.7 11.7 8.5 71 2.6 SE 9 13 5 7 1015.3 1015.1 0.0
16/08:30pm 14.8 12.8 8.7 67 3.1 SE 9 15 5 8 1015.1 1014.9 0.0
16/08:00pm 15.6 14.2 9.7 68 3.1 S 7 13 4 7 1014.9 1014.7 0.0
16/07:30pm 16.0 14.3 9.7 66 3.3 S 9 19 5 10 1014.5 1014.3 0.0
16/07:00pm 16.6 14.2 10.2 66 3.4 S 13 22 7 12 1014.1 1013.9 0.0
16/06:30pm 16.9 15.1 11.0 68 3.2 S 11 24 6 13 1013.9 1013.7 0.0
16/06:00pm 17.3 15.4 10.4 64 3.7 S 11 19 6 10 1013.7 1013.5 0.0
16/05:30pm 18.8 15.6 11.1 61 4.2 SSW 19 30 10 16 1013.5 1013.3 0.0
16/05:00pm 18.6 16.4 10.9 61 4.2 S 13 28 7 15 1013.4 1013.2 0.0
16/04:30pm 19.0 16.6 11.3 61 4.2 S 15 32 8 17 1013.1 1012.9 0.0
16/04:00pm 19.5 17.6 11.8 61 4.3 S 13 24 7 13 1013.0 1012.8 0.0
16/03:30pm 19.2 17.1 11.3 60 4.3 S 13 26 7 14 1012.9 1012.7 0.0
16/03:00pm 19.4 16.7 10.4 56 4.9 S 15 24 8 13 1012.9 1012.7 0.0
16/02:30pm 18.9 16.3 10.7 59 4.4 SSE 15 30 8 16 1012.9 1012.7 0.0
16/02:00pm 19.3 16.5 10.0 55 5.0 S 15 28 8 15 1013.0 1012.8 0.0
16/01:30pm 20.7 17.5 11.1 54 5.3 SSW 19 32 10 17 1012.9 1012.7 0.0
16/01:00pm 21.1 18.4 10.3 50 5.9 S 15 30 8 16 1012.7 1012.5 0.0
16/12:30pm 20.5 17.2 10.9 54 5.3 SSW 19 30 10 16 1012.7 1012.5 0.0
16/12:00pm 19.2 16.5 10.5 57 4.7 S 15 28 8 15 1012.6 1012.4 0.0
16/11:30am 19.9 16.5 10.6 55 5.1 SSW 19 28 10 15 1012.6 1012.4 0.0
16/11:00am 20.3 17.7 12.0 59 4.6 S 17 28 9 15 1012.5 1012.3 0.0
16/10:30am 18.9 15.5 11.2 61 4.2 S 20 32 11 17 1012.4 1012.2 0.0
16/10:00am 19.3 16.7 13.3 68 3.4 S 19 30 10 16 1012.2 1012.0 0.0
16/09:30am 17.2 16.0 13.9 81 1.9 SSW 13 24 7 13 1012.1 1011.9 0.0
16/09:00am 16.3 16.7 15.3 94 0.6 SW 7 13 4 7 1011.9 1011.7 0.4
16/08:30am 16.5 16.5 15.2 92 0.8 SSW 9 17 5 9 1011.9 1011.7 0.2
16/08:00am 16.9 16.3 13.6 81 1.9 SSW 9 17 5 9 1011.7 1011.5 0.0
16/07:30am 17.0 17.6 15.2 89 1.0 SW 6 7 3 4 1011.4 1011.2 0.0
16/07:00am 15.2 16.8 15.0 99 0.1 CALM 0 7 0 4 1011.1 1010.9 0.0
16/06:30am 14.7 16.2 14.7 100 0.0 CALM 0 6 0 3 1011.0 1010.8 0.0
16/06:00am 13.2 13.4 13.0 99 0.1 SW 4 6 2 3 1010.7 1010.5 0.0
16/05:30am 13.2 13.0 13.0 99 0.1 SW 6 6 3 3 1010.5 1010.3 0.0
16/05:00am 12.8 13.6 12.6 99 0.1 CALM 0 0 0 0 1010.1 1009.9 0.0
16/04:30am 12.8 13.3 12.8 100 0.0 SW 2 6 1 3 1009.9 1009.7 0.0
16/04:00am 13.1 12.9 13.1 100 0.0 SW 6 7 3 4 1009.8 1009.6 0.0
16/03:30am 13.4 13.3 13.4 100 0.0 SW 6 7 3 4 1009.6 1009.4 0.0
16/03:00am 13.7 13.7 13.7 100 0.0 SW 6 7 3 4 1009.6 1009.4 0.0
16/02:30am 13.8 13.9 13.8 100 0.0 SW 6 7 3 4 1009.5 1009.3 0.0
16/02:00am 14.2 14.2 14.2 100 0.0 SW 7 9 4 5 1009.4 1009.2 0.0
16/01:30am 14.4 14.7 14.4 100 0.0 SW 6 7 3 4 1009.4 1009.2 0.0
16/01:00am 14.4 15.0 14.2 99 0.1 SW 4 7 2 4 1009.4 1009.2 0.0
16/12:30am 14.1 14.2 13.9 99 0.1 SW 6 7 3 4 1009.5 1009.3 0.0
16/12:00am 14.6 16.0 14.4 99 0.1 CALM 0 0 0 0 1009.4 1009.2 0.0
 
Date/Time
WST
Temp
°C
App
Temp
°C
Dew
Point
°C
Rel
Hum
%
Delta-T
°C
Wind Press
QNH
hPa
Press
MSL
hPa
Rain since
9am
mm
Dir  Spd
km/h
Gust
km/h
Spd
kts
Gust
kts
15/11:30pm 15.0 16.2 13.9 93 0.6 CALM 0 0 0 0 1009.5 1009.3 0.0
15/11:00pm 15.8 17.2 14.3 91 0.9 CALM 0 0 0 0 1009.6 1009.4 0.0
15/10:30pm 16.4 17.8 14.4 88 1.1 CALM 0 0 0 0 1009.7 1009.5 0.0
15/10:00pm 16.7 18.2 14.7 88 1.2 CALM 0 0 0 0 1010.0 1009.8 0.0
15/09:30pm 16.8 18.4 14.8 88 1.2 CALM 0 0 0 0 1010.2 1010.0 0.0
15/09:00pm 16.3 17.7 14.3 88 1.1 CALM 0 0 0 0 1010.1 1009.9 0.0
15/08:30pm 15.9 17.0 13.6 86 1.3 CALM 0 0 0 0 1010.0 1009.8 0.0
15/08:00pm 16.2 17.0 12.7 80 1.9 CALM 0 0 0 0 1010.0 1009.8 0.0
15/07:30pm 17.5 17.1 13.0 75 2.5 SW 7 9 4 5 1010.0 1009.8 0.0
15/07:00pm 18.5 17.5 13.4 72 2.9 SW 11 15 6 8 1009.8 1009.6 0.0
15/06:30pm 18.4 17.0 13.5 73 2.8 SW 13 26 7 14 1009.9 1009.7 0.0
15/06:00pm 19.6 17.5 13.5 68 3.5 SW 17 28 9 15 1009.6 1009.4 0.0
15/05:30pm 19.7 16.8 12.2 62 4.2 SW 19 32 10 17 1009.4 1009.2 0.0
15/05:00pm 21.2 19.0 13.4 61 4.5 WSW 17 30 9 16 1009.2 1009.0 0.0
15/04:30pm 21.6 19.0 13.2 59 4.8 SSW 19 28 10 15 1009.0 1008.8 0.0
15/04:00pm 22.1 18.8 12.9 56 5.3 SSW 22 33 12 18 1008.9 1008.7 0.0
15/03:30pm 22.5 20.9 13.8 58 5.1 WSW 15 22 8 12 1008.8 1008.6 0.0
15/03:00pm 23.2 21.3 14.2 57 5.3 SW 17 24 9 13 1008.7 1008.5 0.0
15/02:30pm 23.2 20.8 13.9 56 5.5 SSW 19 30 10 16 1008.8 1008.6 0.0
15/02:00pm 23.9 22.8 15.4 59 5.1 SW 15 24 8 13 1008.9 1008.7 0.0
15/01:30pm 22.9 21.1 14.5 59 5.0 SW 17 26 9 14 1009.0 1008.8 0.0
15/01:00pm 23.3 22.9 16.1 64 4.4 SSW 13 24 7 13 1009.0 1008.8 0.0
15/12:30pm 23.5 23.7 16.8 66 4.1 WSW 11 20 6 11 1009.1 1008.9 0.0
15/12:00pm 23.1 22.9 16.6 67 4.0 SW 13 20 7 11 1009.4 1009.2 0.0
15/11:30am 22.1 21.8 16.4 70 3.5 SSW 13 22 7 12 1009.5 1009.3 0.0
15/11:00am 21.9 21.8 16.0 69 3.6 WSW 11 20 6 11 1009.7 1009.5 0.0
15/10:30am 21.8 22.5 17.0 74 2.9 SW 9 13 5 7 1009.7 1009.5 0.0
15/10:00am 20.8 21.3 16.6 77 2.6 WSW 9 13 5 7 1009.9 1009.7 0.0
15/09:30am 20.1 20.9 16.3 79 2.3 SSW 7 11 4 6 1010.0 1009.8 0.0
15/09:00am 19.6 20.1 16.6 83 1.8 S 9 15 5 8 1010.1 1009.9 0.0
15/08:30am 19.1 20.6 18.9 99 0.1 SSW 9 13 5 7 1010.3 1010.1 0.0
15/08:00am 18.3 20.1 18.3 100 0.0 SE 6 7 3 4 1010.3 1010.1 0.0
15/07:30am 16.6 18.8 16.6 100 0.0 CALM 0 0 0 0 1010.5 1010.3 0.0
15/07:00am 16.0 18.0 16.0 100 0.0 CALM 0 0 0 0 1010.6 1010.4 0.0
15/06:30am 15.0 16.6 15.0 100 0.0 CALM 0 0 0 0 1010.5 1010.3 0.0
15/06:00am 13.7 14.5 13.7 100 0.0 ENE 2 6 1 3 1010.5 1010.3 0.0
15/05:30am 14.0 15.3 14.0 100 0.0 CALM 0 6 0 3 1010.4 1010.2 0.0
15/05:00am 14.4 14.5 14.4 100 0.0 ENE 7 9 4 5 1010.2 1010.0 0.0
15/04:30am 14.1 15.0 14.1 100 0.0 ENE 2 6 1 3 1010.1 1009.9 0.0
15/04:00am 14.0 13.9 14.0 100 0.0 ENE 7 9 4 5 1010.0 1009.8 0.0
15/03:30am 14.4 15.8 14.4 100 0.0 CALM 0 0 0 0 1010.3 1010.1 0.0
15/03:00am 14.5 15.9 14.3 99 0.1 CALM 0 0 0 0 1010.2 1010.0 0.0
15/02:30am 14.7 15.8 14.5 99 0.1 ENE 2 6 1 3 1010.4 1010.2 0.0
15/02:00am 15.3 15.8 15.1 99 0.1 ENE 6 7 3 4 1010.9 1010.7 0.0
15/01:30am 15.6 16.0 15.4 99 0.1 ENE 7 9 4 5 1011.3 1011.1 0.0
15/01:00am 15.5 16.9 15.5 100 0.0 ENE 2 7 1 4 1011.3 1011.1 0.0
15/12:30am 15.7 16.3 15.7 100 0.0 NE 7 13 4 7 1011.5 1011.3 0.0
15/12:00am 15.9 16.7 15.9 100 0.0 SE 6 9 3 5 1011.8 1011.6 0.0
 
Date/Time
WST
Temp
°C
App
Temp
°C
Dew
Point
°C
Rel
Hum
%
Delta-T
°C
Wind Press
QNH
hPa
Press
MSL
hPa
Rain since
9am
mm
Dir  Spd
km/h
Gust
km/h
Spd
kts
Gust
kts
14/11:30pm 16.0 16.7 16.0 100 0.0 SE 7 9 4 5 1012.1 1011.9 0.0
14/11:00pm 16.7 17.8 16.7 100 0.0 SE 6 7 3 4 1012.4 1012.2 0.0
14/10:30pm 16.7 19.0 16.7 100 0.0 CALM 0 0 0 0 1012.6 1012.4 0.0
14/10:00pm 16.9 19.2 16.7 99 0.1 CALM 0 0 0 0 1013.1 1012.9 0.0
14/09:30pm 17.0 18.9 16.8 99 0.1 SE 2 7 1 4 1013.2 1013.0 0.0
14/09:00pm 17.1 18.0 16.5 96 0.4 SSE 7 9 4 5 1013.2 1013.0 0.0
14/08:30pm 17.4 18.4 16.3 93 0.7 SSE 6 11 3 6 1013.1 1012.9 0.0
14/08:00pm 17.8 18.7 16.0 89 1.1 SE 6 7 3 4 1013.0 1012.8 0.0
14/07:30pm 18.7 19.3 15.9 84 1.7 SSE 7 11 4 6 1012.8 1012.6 0.0
14/07:00pm 20.1 20.9 16.3 79 2.3 S 7 9 4 5 1012.7 1012.5 0.0
14/06:30pm 21.4 22.5 16.6 74 2.9 SSE 6 9 3 5 1012.5 1012.3 0.0
14/06:00pm 21.6 22.1 16.6 73 3.0 S 9 15 5 8 1012.4 1012.2 0.0
14/05:30pm 22.7 23.5 17.2 71 3.4 S 9 15 5 8 1012.2 1012.0 0.0
14/05:00pm 22.5 22.8 17.0 71 3.4 S 11 17 6 9 1012.3 1012.1 0.0
14/04:30pm 22.4 22.2 16.7 70 3.5 SSE 13 20 7 11 1012.3 1012.1 0.0
14/04:00pm 23.3 22.7 16.6 66 4.1 SSE 15 22 8 12 1012.6 1012.4 0.0
14/03:30pm 23.1 22.7 16.2 65 4.2 S 13 24 7 13 1012.8 1012.6 0.0
14/03:00pm 23.7 23.3 16.2 63 4.6 S 13 24 7 13 1013.1 1012.9 0.0
14/02:30pm 23.2 21.8 15.5 62 4.6 S 17 32 9 17 1013.1 1012.9 0.0
14/02:00pm 24.3 23.1 16.0 60 5.1 S 17 32 9 17 1013.5 1013.3 0.0
14/01:30pm 23.5 22.8 15.3 60 4.9 S 13 20 7 11 1013.7 1013.5 0.0
14/01:00pm 23.9 22.9 15.7 60 5.0 S 15 26 8 14 1014.3 1014.1 0.0
14/12:30pm 23.3 22.0 14.8 59 5.1 S 15 26 8 14 1014.6 1014.4 0.0
14/12:00pm 24.9 23.4 15.2 54 5.8 S 17 28 9 15 1014.8 1014.6 0.0
14/11:30am 25.0 23.9 13.2 48 6.9 NE 11 20 6 11 1015.1 1014.9 0.0
14/11:00am 23.9 22.8 13.2 51 6.2 E 11 19 6 10 1015.3 1015.1 0.0
14/10:30am 23.0 21.8 12.9 53 5.8 NE 11 20 6 11 1015.7 1015.5 0.0
14/10:00am 22.2 21.2 13.3 57 5.1 NE 11 20 6 11 1016.1 1015.9 0.0
14/09:30am 20.4 18.5 11.9 58 4.7 E 13 20 7 11 1016.5 1016.3 0.0
14/09:00am 19.1 17.3 12.1 64 3.9 ENE 13 20 7 11 1016.7 1016.5 0.0

Other Formats:

Comma delimited format used in spreadsheet applications
http://www.bom.gov.au/fwo/IDW60801/IDW60801.95647.axf

JavaScript Object Notation format (JSON) in row-major order
http://www.bom.gov.au/fwo/IDW60801/IDW60801.95647.json